createdAt,value
2022-10-21T00:02:11.891Z,100862.45
2022-10-21T00:04:41.656Z,100856.50
2022-10-21T00:07:11.705Z,100860.37
2022-10-21T00:09:41.466Z,100867.48
2022-10-21T00:12:12.080Z,100875.70
2022-10-21T00:14:41.837Z,100875.70
2022-10-21T00:17:11.565Z,100872.78
2022-10-21T00:19:42.684Z,100873.19
2022-10-21T00:22:12.765Z,100874.50
2022-10-21T00:24:42.597Z,100868.62
2022-10-21T00:27:12.640Z,100872.38
2022-10-21T00:29:42.693Z,100869.98
2022-10-21T00:32:12.441Z,100852.34
2022-10-21T00:34:43.269Z,100852.34
2022-10-21T00:37:13.895Z,100868.86
2022-10-21T00:39:43.709Z,100863.60
2022-10-21T00:42:19.225Z,100856.94
2022-10-21T00:45:09.522Z,100854.44
2022-10-21T00:47:51.215Z,100852.02
2022-10-21T00:50:53.544Z,100855.02
2022-10-21T00:53:24.238Z,100863.47
2022-10-21T00:55:57.245Z,100855.25
2022-10-21T00:58:29.541Z,100855.60
2022-10-21T01:01:01.617Z,100849.68
2022-10-21T01:03:32.896Z,100849.57
2022-10-21T01:06:05.584Z,100838.77
2022-10-21T01:08:36.183Z,100839.12
2022-10-21T01:11:08.429Z,100839.17
2022-10-21T01:13:50.037Z,100840.48
2022-10-21T01:16:30.980Z,100837.27
2022-10-21T01:19:15.359Z,100835.87
2022-10-21T01:22:06.028Z,100834.28
2022-10-21T01:24:50.644Z,100827.11
2022-10-21T01:27:26.727Z,100828.47
2022-10-21T01:30:10.726Z,100816.52
2022-10-21T01:33:01.651Z,100814.27
2022-10-21T01:35:54.770Z,100810.94
2022-10-21T01:38:27.314Z,100815.18
2022-10-21T01:41:17.918Z,100808.45
2022-10-21T01:44:02.528Z,100807.86
2022-10-21T01:46:38.171Z,100803.34
2022-10-21T01:49:16.682Z,100797.39
2022-10-21T01:51:47.072Z,100798.55
2022-10-21T01:54:25.636Z,100792.28
2022-10-21T01:56:57.334Z,100788.97
2022-10-21T01:59:29.658Z,100785.51
2022-10-21T02:02:02.818Z,100779.66
2022-10-21T02:04:34.860Z,100781.63
2022-10-21T02:07:05.213Z,100770.83
2022-10-21T02:09:34.962Z,100767.62
2022-10-21T02:12:07.420Z,100759.04
2022-10-21T02:14:45.511Z,100762.31
2022-10-21T02:17:18.931Z,100758.94
2022-10-21T02:19:48.713Z,100757.78
2022-10-21T02:22:21.583Z,100746.50
2022-10-21T02:25:03.070Z,100746.88
2022-10-21T02:27:33.072Z,100740.81
2022-10-21T02:30:03.345Z,100741.11
2022-10-21T02:32:41.871Z,100735.28
2022-10-21T02:35:26.479Z,100742.97
2022-10-21T02:38:04.450Z,100742.97
2022-10-21T02:40:40.057Z,100743.64
2022-10-21T02:43:15.637Z,100741.44
2022-10-21T02:45:48.318Z,100743.66
2022-10-21T02:48:18.210Z,100721.47
2022-10-21T02:50:47.709Z,100721.47
2022-10-21T02:53:17.843Z,100725.68
2022-10-21T02:55:49.235Z,100726.98
2022-10-21T02:58:19.014Z,100731.77
2022-10-21T03:00:48.841Z,100733.45
2022-10-21T03:03:18.763Z,100740.47
2022-10-21T03:05:48.746Z,100737.25
2022-10-21T03:08:18.473Z,100732.28
2022-10-21T03:10:53.044Z,100732.28
2022-10-21T03:13:22.622Z,100734.81
2022-10-21T03:15:52.839Z,100732.84
2022-10-21T03:18:22.605Z,100738.37
2022-10-21T03:20:53.338Z,100734.19
2022-10-21T03:23:23.096Z,100740.81
2022-10-21T03:25:52.870Z,100730.67
2022-10-21T03:28:22.660Z,100730.73
2022-10-21T03:30:52.408Z,100735.08
2022-10-21T03:33:22.188Z,100728.77
2022-10-21T03:35:51.995Z,100728.67
2022-10-21T03:38:21.827Z,100723.56
2022-10-21T03:40:52.298Z,100724.24
2022-10-21T03:43:22.065Z,100720.50
2022-10-21T03:45:51.835Z,100722.10
2022-10-21T03:48:21.587Z,100722.10
2022-10-21T03:50:52.105Z,100713.70
2022-10-21T03:53:38.127Z,100719.48
2022-10-21T03:55:56.681Z,100724.25
2022-10-21T03:58:25.522Z,100721.59
2022-10-21T04:00:56.206Z,100727.38
2022-10-21T04:03:25.959Z,100727.38
2022-10-21T04:05:55.786Z,100722.89
2022-10-21T04:08:25.520Z,100723.56
2022-10-21T04:10:56.816Z,100725.77
2022-10-21T04:13:26.638Z,100719.08
2022-10-21T04:15:58.929Z,100713.73
2022-10-21T04:18:28.690Z,100713.73
2022-10-21T04:20:58.440Z,100719.52
2022-10-21T04:23:28.212Z,100717.48
2022-10-21T04:25:57.998Z,100721.73
2022-10-21T04:28:27.519Z,100726.06
2022-10-21T04:30:57.279Z,100728.44
2022-10-21T04:33:27.626Z,100701.27
2022-10-21T04:35:59.082Z,100701.27
2022-10-21T04:38:30.514Z,100724.87
2022-10-21T04:41:02.855Z,100722.19
2022-10-21T04:43:32.924Z,100724.56
2022-10-21T04:46:02.693Z,100716.17
2022-10-21T04:48:32.480Z,100724.70
2022-10-21T04:51:02.239Z,100723.27
2022-10-21T04:53:31.988Z,100719.82
2022-10-21T04:56:01.819Z,100710.63
2022-10-21T04:58:31.655Z,100712.97
2022-10-21T05:01:01.509Z,100723.62
2022-10-21T05:03:31.979Z,100723.62
2022-10-21T05:06:01.702Z,100721.49
2022-10-21T05:08:31.551Z,100721.13
2022-10-21T05:11:02.349Z,100728.28
2022-10-21T05:13:33.439Z,100727.50
2022-10-21T05:16:04.737Z,100724.92
2022-10-21T05:18:34.474Z,100719.82
2022-10-21T05:21:04.503Z,100722.80
2022-10-21T05:23:34.550Z,100721.05
2022-10-21T05:26:07.056Z,100694.02
2022-10-21T05:28:37.547Z,100694.02
2022-10-21T05:31:07.303Z,100715.17
2022-10-21T05:33:37.121Z,100715.17
2022-10-21T05:36:08.591Z,100723.62
2022-10-21T05:38:38.343Z,100723.62
2022-10-21T05:41:08.107Z,100715.50
2022-10-21T05:43:38.805Z,100720.05
2022-10-21T05:48:39.864Z,100703.30
2022-10-21T05:51:09.601Z,100696.99
2022-10-21T05:53:39.811Z,100698.66
2022-10-21T05:56:12.134Z,100688.53
2022-10-21T05:58:41.867Z,100688.53
2022-10-21T06:01:12.297Z,100702.54
2022-10-21T06:03:42.094Z,100695.32
2022-10-21T06:06:11.757Z,100696.75
2022-10-21T06:08:41.399Z,100693.88
2022-10-21T06:11:13.926Z,100692.11
2022-10-21T06:13:44.532Z,100685.86
2022-10-21T06:16:15.127Z,100689.00
2022-10-21T06:18:45.119Z,100677.81
2022-10-21T06:21:14.884Z,100672.03
2022-10-21T06:23:44.774Z,100679.72
2022-10-21T06:26:16.773Z,100666.67
2022-10-21T06:28:46.497Z,100672.70
2022-10-21T06:31:18.560Z,100676.27
2022-10-21T06:33:48.790Z,100688.60
2022-10-21T06:36:18.747Z,100688.60
2022-10-21T06:38:48.578Z,100686.27
2022-10-21T06:41:18.872Z,100699.80
2022-10-21T06:43:48.612Z,100678.28
2022-10-21T06:46:18.719Z,100678.28
2022-10-21T06:48:48.249Z,100695.08
2022-10-21T06:51:21.036Z,100695.78
2022-10-21T06:53:56.543Z,100698.05
2022-10-21T06:56:27.129Z,100706.75
2022-10-21T06:58:58.989Z,100720.66
2022-10-21T07:01:48.326Z,100705.27
2022-10-21T07:04:10.796Z,100721.83
2022-10-21T07:06:40.608Z,100721.83
2022-10-21T07:09:10.933Z,100725.16
2022-10-21T07:11:40.815Z,100724.40
2022-10-21T07:14:13.264Z,100740.23
2022-10-21T07:16:43.013Z,100740.23
2022-10-21T07:19:12.753Z,100747.22
2022-10-21T07:21:42.613Z,100747.22
2022-10-21T07:24:12.197Z,100743.44
2022-10-21T07:26:42.094Z,100759.48
2022-10-21T07:29:11.875Z,100759.48
2022-10-21T07:31:41.808Z,100758.70
2022-10-21T07:34:13.375Z,100761.84
2022-10-21T07:36:47.685Z,100762.45
2022-10-21T07:39:19.005Z,100768.41
2022-10-21T07:41:51.436Z,100770.31
2022-10-21T07:44:22.717Z,100765.73
2022-10-21T07:46:54.121Z,100773.05
2022-10-21T07:49:25.537Z,100763.31
2022-10-21T07:51:55.296Z,100762.81
2022-10-21T07:54:25.162Z,100771.02
2022-10-21T07:56:54.911Z,100758.84
2022-10-21T07:59:25.352Z,100758.80
2022-10-21T08:01:55.205Z,100749.93
2022-10-21T08:04:27.414Z,100756.25
2022-10-21T08:06:57.440Z,100756.13
2022-10-21T08:09:27.381Z,100752.92
2022-10-21T08:11:57.964Z,100738.55
2022-10-21T08:14:27.683Z,100746.69
2022-10-21T08:16:57.528Z,100756.25
2022-10-21T08:19:28.919Z,100750.88
2022-10-21T08:22:00.793Z,100757.09
2022-10-21T08:24:30.542Z,100752.14
2022-10-21T08:27:00.445Z,100753.74
2022-10-21T08:29:30.566Z,100748.97
2022-10-21T08:32:00.421Z,100744.22
2022-10-21T08:34:30.168Z,100744.31
2022-10-21T08:36:59.920Z,100745.77
2022-10-21T08:39:29.752Z,100743.66
2022-10-21T08:42:17.038Z,100738.05
2022-10-21T08:44:52.422Z,100738.05
2022-10-21T08:47:34.429Z,100741.58
2022-10-21T08:50:19.047Z,100735.95
2022-10-21T08:52:51.847Z,100743.41
2022-10-21T08:55:33.327Z,100744.72
2022-10-21T08:58:04.928Z,100738.72
2022-10-21T09:00:40.264Z,100747.12
2022-10-21T09:03:16.115Z,100748.28
2022-10-21T09:05:49.140Z,100745.75
2022-10-21T09:08:27.508Z,100755.20
2022-10-21T09:11:05.734Z,100760.16
2022-10-21T09:14:02.244Z,100772.13
2022-10-21T09:16:52.483Z,100762.14
2022-10-21T09:19:43.051Z,100759.50
2022-10-21T09:22:39.406Z,100775.87
2022-10-21T09:25:21.315Z,100793.99
2022-10-21T09:27:56.747Z,100790.05
2022-10-21T09:30:24.215Z,100796.97
2022-10-21T09:32:59.484Z,100789.63
2022-10-21T09:35:43.591Z,100786.66
2022-10-21T09:38:19.480Z,100778.45
2022-10-21T09:40:51.916Z,100781.64
2022-10-21T09:43:24.715Z,100781.72
2022-10-21T09:45:55.229Z,100788.19
2022-10-21T09:49:06.927Z,100792.94
2022-10-21T09:51:21.449Z,100796.74
2022-10-21T09:53:57.063Z,100789.61
2022-10-21T09:56:44.140Z,100787.48
2022-10-21T09:59:21.226Z,100785.25
2022-10-21T10:01:51.331Z,100781.23
2022-10-21T10:04:26.828Z,100761.02
2022-10-21T10:06:58.060Z,100761.02
2022-10-21T10:09:37.422Z,100781.78
2022-10-21T10:12:13.860Z,100791.28
2022-10-21T10:14:46.369Z,100779.37
2022-10-21T10:17:22.118Z,100777.73
2022-10-21T10:20:14.842Z,100774.27
2022-10-21T10:22:47.786Z,100777.70
2022-10-21T10:25:24.953Z,100771.85
2022-10-21T10:28:06.835Z,100771.95
2022-10-21T10:30:45.234Z,100779.73
2022-10-21T10:33:23.438Z,100781.08
2022-10-21T10:35:58.693Z,100783.50
2022-10-21T10:38:42.924Z,100781.70
2022-10-21T10:41:15.408Z,100790.79
2022-10-21T10:43:56.793Z,100790.79
2022-10-21T10:46:32.027Z,100800.77
2022-10-21T10:49:16.420Z,100798.23
2022-10-21T10:51:50.923Z,100806.52
2022-10-21T10:54:24.074Z,100809.72
2022-10-21T10:56:58.959Z,100804.59
2022-10-21T10:59:31.833Z,100811.56
2022-10-21T11:02:11.404Z,100807.64
2022-10-21T11:05:18.481Z,100809.52
2022-10-21T11:07:52.994Z,100809.55
2022-10-21T11:10:46.537Z,100801.62
2022-10-21T11:13:19.347Z,100807.09
2022-10-21T11:16:12.222Z,100801.12
2022-10-21T11:19:11.979Z,100805.47
2022-10-21T11:21:53.443Z,100800.28
2022-10-21T11:24:25.953Z,100800.87
2022-10-21T11:27:26.697Z,100811.25
2022-10-21T11:30:05.249Z,100798.30
2022-10-21T11:33:12.406Z,100789.97
2022-10-21T11:35:57.809Z,100785.56
2022-10-21T11:38:34.847Z,100767.41
2022-10-21T11:41:27.213Z,100770.53
2022-10-21T11:44:12.458Z,100760.63
2022-10-21T11:47:05.749Z,100767.84
2022-10-21T11:49:47.518Z,100770.69
2022-10-21T11:52:45.036Z,100763.22
2022-10-21T11:55:35.205Z,100768.98
2022-10-21T11:58:12.053Z,100781.81
2022-10-21T12:00:56.802Z,100786.92
2022-10-21T12:03:29.587Z,100777.31
2022-10-21T12:06:10.055Z,100766.03
2022-10-21T12:08:57.514Z,100762.38
2022-10-21T12:14:30.859Z,100753.36
2022-10-21T12:17:01.056Z,100746.51
2022-10-21T12:19:31.037Z,100744.02
2022-10-21T12:22:01.417Z,100744.02
2022-10-21T12:24:39.999Z,100739.59
2022-10-21T12:27:18.724Z,100751.52
2022-10-21T12:30:08.498Z,100756.23
2022-10-21T12:33:02.349Z,100745.95
2022-10-21T12:35:51.545Z,100747.64
2022-10-21T12:38:44.993Z,100752.36
2022-10-21T12:41:29.917Z,100757.36
2022-10-21T12:44:05.359Z,100735.40
2022-10-21T12:46:49.604Z,100735.40
2022-10-21T12:49:32.474Z,100749.82
2022-10-21T12:52:11.335Z,100748.11
2022-10-21T12:54:49.730Z,100755.07
2022-10-21T12:57:25.525Z,100745.15
2022-10-21T13:00:14.139Z,100745.15
2022-10-21T13:03:06.235Z,100750.14
2022-10-21T13:05:41.752Z,100745.13
2022-10-21T13:08:24.175Z,100751.51
2022-10-21T13:11:08.695Z,100763.39
2022-10-21T13:13:43.651Z,100757.29
2022-10-21T13:16:25.109Z,100756.72
2022-10-21T13:18:56.651Z,100760.06
2022-10-21T13:21:32.121Z,100762.87
2022-10-21T13:24:13.759Z,100732.11
2022-10-21T13:27:06.427Z,100732.11
2022-10-21T13:29:45.172Z,100748.48
2022-10-21T13:32:21.778Z,100744.33
2022-10-21T13:35:09.390Z,100739.53
2022-10-21T13:37:45.284Z,100735.58
2022-10-21T13:40:18.698Z,100747.66
2022-10-21T13:42:51.559Z,100745.05
2022-10-21T13:45:27.025Z,100752.88
2022-10-21T13:48:05.466Z,100754.57
2022-10-21T13:50:40.607Z,100757.62
2022-10-21T13:53:34.965Z,100759.03
2022-10-21T13:56:09.454Z,100764.83
2022-10-21T13:58:40.578Z,100765.16
2022-10-21T14:01:13.663Z,100767.61
2022-10-21T14:03:43.933Z,100762.91
2022-10-21T14:06:26.748Z,100764.58
2022-10-21T14:08:56.850Z,100750.42
2022-10-21T14:11:33.435Z,100757.64
2022-10-21T14:14:04.307Z,100760.39
2022-10-21T14:16:36.841Z,100756.80
2022-10-21T14:19:09.605Z,100758.48
2022-10-21T14:21:41.928Z,100754.29
2022-10-21T14:24:36.150Z,100748.66
2022-10-21T14:27:07.116Z,100748.83
2022-10-21T14:29:37.488Z,100749.33
2022-10-21T14:32:08.869Z,100746.43
2022-10-21T14:34:41.722Z,100756.98
2022-10-21T14:37:14.501Z,100753.95
2022-10-21T14:39:44.239Z,100751.11
2022-10-21T14:42:16.830Z,100745.89
2022-10-21T14:44:48.147Z,100747.78
2022-10-21T14:47:26.355Z,100747.52
2022-10-21T14:50:01.063Z,100750.32
2022-10-21T14:52:37.109Z,100750.06
2022-10-21T14:55:11.215Z,100755.65
2022-10-21T14:57:49.813Z,100755.66
2022-10-21T15:00:34.557Z,100760.38
2022-10-21T15:03:04.455Z,100760.38
2022-10-21T15:05:47.873Z,100760.39
2022-10-21T15:08:29.404Z,100756.55
2022-10-21T15:11:12.075Z,100756.55
2022-10-21T15:13:44.858Z,100762.33
2022-10-21T15:16:22.166Z,100762.33
2022-10-21T15:18:53.888Z,100779.25
2022-10-21T15:21:38.262Z,100777.62
2022-10-21T15:24:09.990Z,100779.31
2022-10-21T15:26:42.066Z,100778.70
2022-10-21T15:29:23.979Z,100776.75
2022-10-21T15:31:54.019Z,100771.75
2022-10-21T15:34:23.532Z,100771.45
2022-10-21T15:36:53.506Z,100769.47
2022-10-21T15:39:23.315Z,100770.52
2022-10-21T15:41:55.172Z,100764.36
2022-10-21T15:44:27.671Z,100763.52
2022-10-21T15:47:00.705Z,100761.06
2022-10-21T15:49:37.819Z,100751.55
2022-10-21T15:52:10.864Z,100758.70
2022-10-21T15:54:40.694Z,100753.95
2022-10-21T15:57:21.978Z,100755.37
2022-10-21T15:59:51.722Z,100757.77
2022-10-21T16:02:21.194Z,100747.42
2022-10-21T16:04:52.741Z,100761.33
2022-10-21T16:07:25.335Z,100758.71
2022-10-21T16:09:55.220Z,100760.12
2022-10-21T16:12:24.854Z,100759.28
2022-10-21T16:14:54.976Z,100755.41
2022-10-21T16:17:26.339Z,100764.72
2022-10-21T16:19:56.098Z,100774.39
2022-10-21T16:22:25.876Z,100765.97
2022-10-21T16:24:55.696Z,100770.80
2022-10-21T16:27:43.437Z,100760.42
2022-10-21T16:29:57.481Z,100760.42
2022-10-21T16:32:27.381Z,100779.19
2022-10-21T16:34:57.128Z,100779.37
2022-10-21T16:37:28.564Z,100773.83
2022-10-21T16:39:58.381Z,100778.99
2022-10-21T16:42:28.169Z,100792.45
2022-10-21T16:44:57.957Z,100788.84
2022-10-21T16:47:27.710Z,100794.87
2022-10-21T16:50:00.141Z,100794.84
2022-10-21T16:52:29.899Z,100795.41
2022-10-21T16:54:59.930Z,100807.92
2022-10-21T16:57:29.679Z,100807.92
2022-10-21T16:59:59.502Z,100804.31
2022-10-21T17:02:29.610Z,100806.05
2022-10-21T17:04:59.373Z,100808.50
2022-10-21T17:07:30.746Z,100802.30
2022-10-21T17:10:01.912Z,100803.80
2022-10-21T17:12:33.216Z,100804.83
2022-10-21T17:15:03.661Z,100815.43
2022-10-21T17:17:33.754Z,100815.17
2022-10-21T17:20:03.738Z,100822.47
2022-10-21T17:22:33.249Z,100822.50
2022-10-21T17:25:03.052Z,100826.77
2022-10-21T17:27:32.534Z,100838.48
2022-10-21T17:30:02.320Z,100835.59
2022-10-21T17:32:32.185Z,100839.92
2022-10-21T17:35:02.053Z,100838.00
2022-10-21T17:37:32.128Z,100836.20
2022-10-21T17:40:01.869Z,100836.20
2022-10-21T17:42:31.912Z,100841.53
2022-10-21T17:45:03.797Z,100838.47
2022-10-21T17:47:33.736Z,100838.47
2022-10-21T17:50:04.050Z,100850.91
2022-10-21T17:52:33.893Z,100860.59
2022-10-21T17:55:04.423Z,100855.34
2022-10-21T17:57:34.614Z,100862.84
2022-10-21T18:00:06.434Z,100863.50
2022-10-21T18:02:38.354Z,100862.30
2022-10-21T18:05:10.568Z,100867.13
2022-10-21T18:07:41.033Z,100840.41
2022-10-21T18:10:10.929Z,100840.41
2022-10-21T18:12:40.950Z,100862.99
2022-10-21T18:15:11.052Z,100864.83
2022-10-21T18:17:41.398Z,100865.79
2022-10-21T18:20:13.786Z,100867.28
2022-10-21T18:22:43.542Z,100858.09
2022-10-21T18:25:13.108Z,100858.52
2022-10-21T18:30:12.932Z,100860.85
2022-10-21T18:32:43.018Z,100858.82
2022-10-21T18:35:12.689Z,100866.14
2022-10-21T18:37:43.409Z,100863.20
2022-10-21T18:40:15.456Z,100866.64
2022-10-21T18:42:45.923Z,100867.73
2022-10-21T18:45:15.627Z,100873.51
2022-10-21T18:47:47.041Z,100873.31
2022-10-21T18:50:17.637Z,100875.88
2022-10-21T18:52:47.240Z,100876.78
2022-10-21T18:55:16.998Z,100882.66
2022-10-21T18:57:46.795Z,100884.53
2022-10-21T19:00:16.587Z,100880.81
2022-10-21T19:02:46.339Z,100881.69
2022-10-21T19:05:15.855Z,100881.56
2022-10-21T19:07:45.844Z,100890.25
2022-10-21T19:10:15.633Z,100882.70
2022-10-21T19:12:45.669Z,100888.17
2022-10-21T19:15:15.371Z,100882.28
2022-10-21T19:17:45.144Z,100884.16
2022-10-21T19:20:17.407Z,100885.38
2022-10-21T19:22:47.702Z,100887.50
2022-10-21T19:25:17.963Z,100895.74
2022-10-21T19:27:47.771Z,100887.83
2022-10-21T19:30:18.806Z,100883.23
2022-10-21T19:32:48.825Z,100885.16
2022-10-21T19:35:18.997Z,100889.41
2022-10-21T19:37:48.718Z,100887.33
2022-10-21T19:40:18.254Z,100881.70
2022-10-21T19:42:48.162Z,100895.70
2022-10-21T19:45:18.109Z,100890.63
2022-10-21T19:47:47.656Z,100889.34
2022-10-21T19:50:18.081Z,100887.80
2022-10-21T19:52:47.826Z,100894.38
2022-10-21T19:55:19.062Z,100888.70
2022-10-21T19:57:49.091Z,100897.80
2022-10-21T20:00:18.609Z,100890.42
2022-10-21T20:02:48.647Z,100889.50
2022-10-21T20:05:18.320Z,100889.30
2022-10-21T20:07:48.134Z,100891.79
2022-10-21T20:10:19.587Z,100888.66
2022-10-21T20:12:49.057Z,100886.53
2022-10-21T20:15:19.030Z,100897.19
2022-10-21T20:17:48.979Z,100892.13
2022-10-21T20:20:18.683Z,100895.91
2022-10-21T20:22:48.749Z,100902.65
2022-10-21T20:25:18.985Z,100907.97
2022-10-21T20:27:49.010Z,100907.72
2022-10-21T20:30:19.148Z,100912.38
2022-10-21T20:32:50.823Z,100907.70
2022-10-21T20:35:21.152Z,100905.38
2022-10-21T20:37:51.217Z,100903.22
2022-10-21T20:40:20.921Z,100911.42
2022-10-21T20:42:51.004Z,100909.95
2022-10-21T20:45:21.173Z,100909.95
2022-10-21T20:47:50.677Z,100916.58
2022-10-21T20:50:20.110Z,100922.14
2022-10-21T20:52:50.225Z,100913.75
2022-10-21T20:55:20.121Z,100924.27
2022-10-21T20:57:50.152Z,100930.26
2022-10-21T21:00:19.942Z,100930.26
2022-10-21T21:02:49.756Z,100936.73
2022-10-21T21:05:19.851Z,100940.38
2022-10-21T21:07:49.608Z,100947.64
2022-10-21T21:10:19.344Z,100950.94
2022-10-21T21:12:49.117Z,100944.48
2022-10-21T21:15:18.890Z,100950.42
2022-10-21T21:17:51.922Z,100950.20
2022-10-21T21:20:21.349Z,100950.94
2022-10-21T21:22:51.113Z,100951.42
2022-10-21T21:25:20.855Z,100954.66
2022-10-21T21:27:50.888Z,100956.72
2022-10-21T21:30:20.995Z,100944.16
2022-10-21T21:32:50.717Z,100944.16
2022-10-21T21:35:20.457Z,100946.39
2022-10-21T21:37:50.262Z,100952.93
2022-10-21T21:40:20.301Z,100951.46
2022-10-21T21:42:50.032Z,100950.28
2022-10-21T21:45:19.487Z,100951.36
2022-10-21T21:47:49.243Z,100949.13
2022-10-21T21:50:19.334Z,100953.38
2022-10-21T21:52:49.361Z,100953.77
2022-10-21T21:55:19.468Z,100955.48
2022-10-21T21:57:49.201Z,100957.54
2022-10-21T22:00:18.912Z,100957.84
2022-10-21T22:02:48.662Z,100955.48
2022-10-21T22:05:22.470Z,100961.03
2022-10-21T22:07:51.365Z,100950.97
2022-10-21T22:10:21.111Z,100955.09
2022-10-21T22:12:51.167Z,100960.62
2022-10-21T22:15:43.362Z,100955.53
2022-10-21T22:17:53.778Z,100958.49
2022-10-21T22:20:23.653Z,100951.53
2022-10-21T22:22:53.443Z,100952.16
2022-10-21T22:25:22.894Z,100947.29
2022-10-21T22:27:52.936Z,100945.80
2022-10-21T22:30:22.710Z,100938.21
2022-10-21T22:32:52.754Z,100937.76
2022-10-21T22:35:22.190Z,100940.95
2022-10-21T22:37:52.262Z,100937.70
2022-10-21T22:40:21.860Z,100936.54
2022-10-21T22:42:51.665Z,100931.98
2022-10-21T22:45:21.394Z,100933.73
2022-10-21T22:47:51.438Z,100934.66
2022-10-21T22:50:21.526Z,100933.66
2022-10-21T22:52:51.278Z,100934.53
2022-10-21T22:55:21.112Z,100938.34
2022-10-21T22:57:50.922Z,100933.31
2022-10-21T23:00:20.657Z,100936.52
2022-10-21T23:02:50.505Z,100934.50
2022-10-21T23:05:19.947Z,100936.08
2022-10-21T23:07:49.901Z,100935.62
2022-10-21T23:10:23.316Z,100928.20
2022-10-21T23:12:53.080Z,100934.93
2022-10-21T23:15:22.768Z,100928.83
2022-10-21T23:17:52.540Z,100931.36
2022-10-21T23:20:22.259Z,100933.88
2022-10-21T23:22:52.010Z,100929.70
2022-10-21T23:25:22.897Z,100932.98
2022-10-21T23:27:52.712Z,100932.98
2022-10-21T23:30:22.474Z,100932.89
2022-10-21T23:32:52.310Z,100929.84
2022-10-21T23:35:23.677Z,100934.97
2022-10-21T23:37:53.427Z,100936.23
2022-10-21T23:40:23.190Z,100929.07
2022-10-21T23:42:53.229Z,100937.17
2022-10-21T23:45:22.962Z,100936.70
2022-10-21T23:47:53.098Z,100936.70
2022-10-21T23:50:23.067Z,100940.22
2022-10-21T23:52:52.522Z,100953.55
2022-10-21T23:55:22.026Z,100950.30
2022-10-21T23:57:51.822Z,100955.92
